Time;durP1;ratioP1;P1;durP2;ratioP2;P2;SDS_P1;SDS_P2;PMS_P1;PMS_P2;Temp;Humidity;BMP_temperature;BMP_pressure;BME280_temperature;BME280_humidity;BME280_pressure;Samples;Min_cycle;Max_cycle;Signal;HPM_P1;HPM_P2
2023/10/03 00:00:49;;;;;;;23.75;9.15;;;;;;;9.26;100.00;99979.81;5158775;27;20054;-56
2023/10/03 00:03:17;;;;;;;20.45;9.23;;;;;;;9.30;100.00;99982.72;5158958;27;20482;-58
2023/10/03 00:05:45;;;;;;;19.77;8.93;;;;;;;9.26;100.00;99977.09;5158471;27;20082;-57
2023/10/03 00:08:11;;;;;;;22.00;8.93;;;;;;;9.27;100.00;99972.44;5158914;27;20111;-60
2023/10/03 00:10:38;;;;;;;25.27;9.07;;;;;;;9.26;100.00;99979.81;5158443;27;20129;-56
2023/10/03 00:13:07;;;;;;;23.10;8.68;;;;;;;9.21;100.00;99971.06;5158829;27;20097;-57
2023/10/03 00:15:35;;;;;;;18.95;9.00;;;;;;;9.19;100.00;99972.16;5158243;27;20055;-58
2023/10/03 00:18:01;;;;;;;22.38;8.18;;;;;;;9.10;100.00;99966.00;5158844;27;20047;-57
2023/10/03 00:20:28;;;;;;;25.02;10.10;;;;;;;9.11;100.00;99951.16;5158589;27;20078;-60
2023/10/03 00:22:54;;;;;;;21.88;9.10;;;;;;;9.10;100.00;99963.25;5158477;27;20047;-58
2023/10/03 00:25:23;;;;;;;24.88;9.07;;;;;;;9.12;100.00;99947.28;5158571;27;20142;-59
2023/10/03 00:27:51;;;;;;;25.70;8.98;;;;;;;9.12;100.00;99946.50;5158361;27;20076;-57
2023/10/03 00:30:19;;;;;;;20.98;8.40;;;;;;;9.06;100.00;99943.16;5158576;27;20043;-58
2023/10/03 00:32:45;;;;;;;26.38;9.23;;;;;;;9.08;100.00;99937.38;5158305;27;20058;-56
2023/10/03 00:35:12;;;;;;;16.13;8.80;;;;;;;9.08;100.00;99940.09;5158461;27;20063;-59
2023/10/03 00:37:39;;;;;;;19.05;8.38;;;;;;;9.10;100.00;99929.63;5158067;27;20052;-60
2023/10/03 00:40:16;;;;;;;17.23;8.32;;;;;;;9.10;100.00;99927.69;5157968;27;20317;-57
2023/10/03 00:42:44;;;;;;;21.67;8.70;;;;;;;9.05;100.00;99924.38;5157535;27;20050;-57
2023/10/03 00:45:11;;;;;;;23.65;8.20;;;;;;;9.04;100.00;99926.31;5158244;27;20078;-60
2023/10/03 00:47:37;;;;;;;21.48;8.30;;;;;;;9.08;100.00;99919.03;5158001;27;20427;-60
2023/10/03 00:50:03;;;;;;;17.17;7.72;;;;;;;9.07;100.00;99920.16;5158113;27;20137;-58
2023/10/03 00:52:30;;;;;;;17.50;8.25;;;;;;;9.11;100.00;99909.34;5158276;27;20096;-59
2023/10/03 00:54:58;;;;;;;25.67;8.60;;;;;;;9.14;100.00;99914.94;5157855;27;20051;-58
2023/10/03 00:57:24;;;;;;;22.17;8.07;;;;;;;9.16;100.00;99903.66;5158242;27;20046;-55
2023/10/03 00:59:50;;;;;;;20.05;8.18;;;;;;;9.11;100.00;99896.47;5157717;27;20051;-57
2023/10/03 01:02:21;;;;;;;18.92;8.70;;;;;;;9.25;100.00;99881.69;5158201;27;20043;-60
2023/10/03 01:04:47;;;;;;;20.73;9.27;;;;;;;9.33;100.00;99873.38;5157670;27;20420;-56
2023/10/03 01:07:13;;;;;;;22.38;8.32;;;;;;;9.37;100.00;99873.50;5158115;27;20056;-56
2023/10/03 01:09:39;;;;;;;16.80;8.57;;;;;;;9.37;100.00;99884.47;5157631;27;20047;-59
2023/10/03 01:12:06;;;;;;;20.42;8.30;;;;;;;9.42;100.00;99895.97;5157562;27;20049;-60
2023/10/03 01:14:34;;;;;;;18.48;8.10;;;;;;;9.42;100.00;99892.44;5157791;27;20047;-57
2023/10/03 01:17:01;;;;;;;16.67;8.75;;;;;;;9.46;100.00;99901.56;5157757;27;20095;-60
2023/10/03 01:19:30;;;;;;;17.52;7.50;;;;;;;9.48;100.00;99880.13;5157634;27;20108;-60
2023/10/03 01:21:57;;;;;;;23.05;8.27;;;;;;;9.59;100.00;99878.53;5157642;27;20103;-59
2023/10/03 01:24:24;;;;;;;16.35;7.65;;;;;;;9.61;100.00;99880.94;5157910;27;20050;-59
2023/10/03 01:26:52;;;;;;;20.58;8.27;;;;;;;9.58;100.00;99885.16;5157566;27;20078;-58
2023/10/03 01:29:18;;;;;;;22.95;8.50;;;;;;;9.57;100.00;99896.47;5157864;27;20053;-59
2023/10/03 01:31:44;;;;;;;21.52;9.30;;;;;;;9.48;100.00;99895.75;5157431;27;20129;-57
2023/10/03 01:34:10;;;;;;;18.38;8.80;;;;;;;9.51;100.00;99892.34;5157700;27;20054;-61
2023/10/03 01:36:37;;;;;;;20.08;9.18;;;;;;;9.49;100.00;99898.16;5157291;27;20043;-57
2023/10/03 01:39:04;;;;;;;21.77;9.75;;;;;;;9.46;100.00;99900.75;5157661;27;20043;-60
2023/10/03 01:41:34;;;;;;;21.60;9.07;;;;;;;9.55;100.00;99890.53;5157253;27;20073;-59
2023/10/03 01:44:00;;;;;;;20.67;8.75;;;;;;;9.60;100.00;99887.56;5157450;27;20138;-59
2023/10/03 01:46:26;;;;;;;21.48;8.75;;;;;;;9.73;100.00;99891.94;5157543;27;20075;-58
2023/10/03 01:48:52;;;;;;;21.35;8.65;;;;;;;9.82;100.00;99886.31;5157339;27;20503;-56
2023/10/03 01:51:19;;;;;;;24.83;8.23;;;;;;;9.89;100.00;99884.59;5157348;27;20046;-57
2023/10/03 01:53:45;;;;;;;24.20;9.02;;;;;;;9.97;100.00;99893.88;5157079;27;20047;-58
2023/10/03 01:56:12;;;;;;;24.23;8.75;;;;;;;10.04;100.00;99904.25;5160495;27;20568;-60
2023/10/03 01:58:39;;;;;;;18.25;8.35;;;;;;;10.01;100.00;99902.19;5160630;27;20134;-59
2023/10/03 02:01:04;;;;;;;22.90;9.52;;;;;;;10.16;100.00;99896.00;5161057;27;20138;-59
2023/10/03 02:03:32;;;;;;;26.73;8.35;;;;;;;10.22;100.00;99894.63;5160488;27;20395;-60
2023/10/03 02:05:58;;;;;;;18.40;8.48;;;;;;;10.23;100.00;99909.13;5160948;27;20043;-59
2023/10/03 02:08:25;;;;;;;22.25;8.02;;;;;;;10.19;100.00;99909.00;5160428;27;20051;-57
2023/10/03 02:10:52;;;;;;;19.13;7.75;;;;;;;10.27;100.00;99901.88;5160573;27;20051;-60
2023/10/03 02:13:21;;;;;;;13.60;7.57;;;;;;;10.29;100.00;99907.78;5160687;27;20051;-60
2023/10/03 02:15:49;;;;;;;18.60;8.55;;;;;;;10.34;100.00;99905.63;5160380;27;20082;-59
2023/10/03 02:18:17;;;;;;;19.63;7.22;;;;;;;10.41;100.00;99896.03;5160671;27;20050;-59
2023/10/03 02:20:47;;;;;;;23.35;7.68;;;;;;;10.44;100.00;99898.06;5160172;27;20342;-60
2023/10/03 02:23:17;;;;;;;23.10;8.27;;;;;;;10.51;100.00;99899.06;5160559;27;20046;-58
2023/10/03 02:25:44;;;;;;;16.88;7.30;;;;;;;10.39;100.00;99903.78;5160158;27;20055;-58
2023/10/03 02:28:13;;;;;;;25.60;8.27;;;;;;;10.21;100.00;99895.00;5160662;27;20142;-57
2023/10/03 02:30:39;;;;;;;18.90;8.23;;;;;;;10.26;100.00;99894.78;5160093;27;20057;-58
2023/10/03 02:33:10;;;;;;;20.38;8.05;;;;;;;10.27;100.00;99893.66;5160444;27;20043;-59
2023/10/03 02:35:36;;;;;;;13.95;8.15;;;;;;;10.27;100.00;99890.91;5160185;27;20046;-58
2023/10/03 02:38:04;;;;;;;21.88;7.82;;;;;;;10.25;100.00;99885.72;5160164;27;20046;-58
2023/10/03 02:40:32;;;;;;;24.08;8.35;;;;;;;10.25;100.00;99895.88;5160214;27;20301;-60
2023/10/03 02:42:59;;;;;;;19.20;7.18;;;;;;;10.17;100.00;99902.31;5160062;27;20061;-57
2023/10/03 02:45:25;;;;;;;15.02;8.15;;;;;;;10.19;100.00;99881.63;5160245;27;20051;-59
2023/10/03 02:47:55;;;;;;;15.98;7.22;;;;;;;10.11;100.00;99879.81;5160018;27;20046;-58
2023/10/03 02:50:23;;;;;;;21.75;8.73;;;;;;;10.26;100.00;99872.84;5160244;27;20061;-60
2023/10/03 02:52:49;;;;;;;18.27;8.30;;;;;;;10.35;100.00;99879.00;5159877;27;20060;-57
2023/10/03 02:55:17;;;;;;;24.52;8.48;;;;;;;10.38;100.00;99874.78;5160098;27;20105;-54
2023/10/03 02:57:43;;;;;;;16.85;7.53;;;;;;;10.36;100.00;99870.44;5159600;27;20096;-56
2023/10/03 03:00:12;;;;;;;21.73;8.00;;;;;;;10.46;100.00;99866.44;5159604;27;20103;-56
2023/10/03 03:02:41;;;;;;;19.23;9.00;;;;;;;10.51;100.00;99863.44;5159551;27;20058;-58
2023/10/03 03:05:10;;;;;;;16.42;7.88;;;;;;;10.56;100.00;99868.69;5159365;27;20057;-58
2023/10/03 03:07:36;;;;;;;14.95;7.68;;;;;;;10.55;100.00;99858.84;5159685;27;20046;-57
2023/10/03 03:10:03;;;;;;;15.40;7.03;;;;;;;10.67;100.00;99858.00;5159586;27;20446;-54
2023/10/03 03:12:29;;;;;;;20.33;8.15;;;;;;;10.78;100.00;99863.78;5159832;27;20050;-57
2023/10/03 03:14:55;;;;;;;20.23;8.45;;;;;;;10.88;100.00;99866.03;5159497;27;20401;-55
2023/10/03 03:17:21;;;;;;;21.02;8.23;;;;;;;10.90;100.00;99876.69;5159793;27;20050;-58
2023/10/03 03:19:48;;;;;;;24.63;8.40;;;;;;;10.97;100.00;99882.34;5159352;27;20096;-58
2023/10/03 03:22:15;;;;;;;14.32;7.80;;;;;;;10.87;100.00;99877.38;5159663;27;20134;-59
2023/10/03 03:24:42;;;;;;;20.67;8.00;;;;;;;10.84;100.00;99871.44;5159291;27;20145;-58
2023/10/03 03:27:11;;;;;;;25.95;7.82;;;;;;;11.03;100.00;99878.22;5159172;27;20051;-58
2023/10/03 03:29:38;;;;;;;14.93;7.78;;;;;;;11.13;100.00;99869.47;5159428;27;20043;-57
2023/10/03 03:32:04;;;;;;;13.85;6.85;;;;;;;11.13;100.00;99874.97;5159110;27;20050;-58
2023/10/03 03:34:30;;;;;;;23.35;7.78;;;;;;;11.17;100.00;99867.63;5159336;27;20082;-59
2023/10/03 03:37:14;;;;;;;20.73;8.02;;;;;;;11.28;100.00;99856.91;5159054;27;20416;-60
2023/10/03 03:39:52;;;;;;;18.08;6.78;;;;;;;11.22;100.00;99850.09;5159365;27;20050;-60
2023/10/03 03:42:18;;;;;;;16.65;7.53;;;;;;;11.30;100.00;99858.16;5158952;27;20495;-59
2023/10/03 03:44:45;;;;;;;20.23;7.85;;;;;;;11.31;100.00;99865.25;5159368;27;20131;-57
2023/10/03 03:47:11;;;;;;;19.65;7.93;;;;;;;11.35;100.00;99859.03;5158904;27;20051;-58
2023/10/03 03:49:37;;;;;;;17.38;7.55;;;;;;;11.35;100.00;99845.31;5158738;27;20141;-60
2023/10/03 03:52:05;;;;;;;18.63;8.02;;;;;;;11.40;100.00;99837.63;5159033;27;20054;-59
2023/10/03 03:54:31;;;;;;;18.13;8.38;;;;;;;11.44;100.00;99849.50;5158704;27;20061;-57
2023/10/03 03:56:58;;;;;;;16.98;7.53;;;;;;;11.46;100.00;99835.41;5159034;27;20078;-59
2023/10/03 03:59:24;;;;;;;18.23;7.75;;;;;;;11.47;100.00;99837.81;5158854;27;20061;-59
2023/10/03 04:01:50;;;;;;;22.75;8.50;;;;;;;11.51;100.00;99835.16;5159016;27;20043;-58
2023/10/03 04:04:16;;;;;;;17.13;7.10;;;;;;;11.59;100.00;99833.34;5158496;27;20065;-61
2023/10/03 04:06:42;;;;;;;21.83;8.43;;;;;;;11.60;100.00;99827.53;5158998;27;20054;-57
2023/10/03 04:09:09;;;;;;;19.25;7.78;;;;;;;11.61;100.00;99828.31;5158538;27;20046;-61
2023/10/03 04:11:35;;;;;;;15.80;7.97;;;;;;;11.56;100.00;99826.63;5158953;27;20091;-58
2023/10/03 04:14:04;;;;;;;17.60;8.10;;;;;;;11.67;100.00;99827.69;5158419;27;20060;-59
2023/10/03 04:16:38;;;;;;;17.10;7.90;;;;;;;11.62;100.00;99833.44;5158574;27;20053;-59
2023/10/03 04:19:05;;;;;;;16.60;7.90;;;;;;;11.61;100.00;99823.63;5158227;27;20058;-60
2023/10/03 04:21:32;;;;;;;18.20;7.45;;;;;;;11.70;100.00;99817.94;5158596;27;20061;-57
2023/10/03 04:23:59;;;;;;;18.63;8.23;;;;;;;11.93;100.00;99812.63;5158371;27;20050;-61
2023/10/03 04:26:25;;;;;;;20.27;7.97;;;;;;;11.92;100.00;99814.56;5158304;27;20058;-59
2023/10/03 04:28:51;;;;;;;16.67;8.02;;;;;;;12.00;100.00;99791.59;5158626;27;20082;-60
2023/10/03 04:31:17;;;;;;;19.10;8.75;;;;;;;12.00;100.00;99799.03;5158333;27;20054;-61
2023/10/03 04:33:45;;;;;;;21.52;8.30;;;;;;;12.18;100.00;99791.19;5158451;27;20073;-59
2023/10/03 04:36:12;;;;;;;14.43;7.00;;;;;;;12.36;100.00;99800.59;5158137;27;20061;-58
2023/10/03 04:38:40;;;;;;;19.20;8.13;;;;;;;12.32;100.00;99799.72;5158082;27;20050;-59
2023/10/03 04:41:09;;;;;;;18.75;8.30;;;;;;;12.39;100.00;99802.59;5157963;27;20506;-61
2023/10/03 04:43:35;;;;;;;20.58;8.20;;;;;;;12.09;100.00;99779.59;5158196;27;20068;-60
2023/10/03 04:46:02;;;;;;;17.42;8.02;;;;;;;12.27;100.00;99782.72;5158130;27;20054;-59
2023/10/03 04:48:28;;;;;;;18.60;7.93;;;;;;;12.52;100.00;99795.03;5157948;27;20051;-59
2023/10/03 04:50:54;;;;;;;18.00;8.15;;;;;;;12.40;100.00;99803.44;5157942;27;20046;-58
2023/10/03 04:53:20;;;;;;;15.50;8.63;;;;;;;12.13;100.00;99796.94;5157877;27;20149;-57
2023/10/03 04:55:48;;;;;;;15.57;8.50;;;;;;;12.61;100.00;99792.06;5157705;27;20093;-57
2023/10/03 04:58:14;;;;;;;19.83;9.02;;;;;;;12.42;100.00;99788.13;5157674;27;20058;-58
2023/10/03 05:00:41;;;;;;;19.58;8.60;;;;;;;12.59;100.00;99784.16;5158102;27;20057;-58
2023/10/03 05:03:09;;;;;;;16.85;9.07;;;;;;;12.81;100.00;99785.38;5157536;27;20480;-57
2023/10/03 05:05:36;;;;;;;22.05;9.30;;;;;;;12.84;100.00;99784.63;5157829;27;20444;-58
2023/10/03 05:08:02;;;;;;;17.20;9.68;;;;;;;12.79;100.00;99767.63;5157523;27;20046;-58
2023/10/03 05:10:30;;;;;;;22.60;10.45;;;;;;;12.69;100.00;99760.75;5157965;27;20047;-57
2023/10/03 05:12:57;;;;;;;37.42;11.50;;;;;;;13.01;100.00;99772.38;5157348;27;20047;-58
2023/10/03 05:15:26;;;;;;;24.42;11.43;;;;;;;13.22;100.00;99771.94;5157458;27;20046;-62
2023/10/03 05:17:52;;;;;;;30.25;11.10;;;;;;;13.10;100.00;99789.44;5157452;27;20042;-59
2023/10/03 05:20:18;;;;;;;31.02;11.88;;;;;;;13.30;100.00;99776.44;5157433;27;20057;-60
2023/10/03 05:22:45;;;;;;;31.35;11.20;;;;;;;13.24;100.00;99777.09;5157496;27;20055;-60
2023/10/03 05:25:12;;;;;;;28.02;11.18;;;;;;;13.49;100.00;99775.53;5157383;27;20110;-57
2023/10/03 05:27:40;;;;;;;28.52;11.90;;;;;;;13.35;100.00;99778.06;5157528;27;20408;-63
2023/10/03 05:30:09;;;;;;;25.08;11.65;;;;;;;13.60;100.00;99786.75;5159150;27;20114;-62
2023/10/03 05:32:35;;;;;;;24.27;12.93;;;;;;;13.57;100.00;99798.50;5161292;27;20050;-63
2023/10/03 05:35:01;;;;;;;27.00;13.77;;;;;;;13.53;100.00;99792.94;5160712;27;20046;-62
2023/10/03 05:37:27;;;;;;;34.67;15.80;;;;;;;13.54;100.00;99794.53;5161338;27;20046;-66
2023/10/03 05:39:53;;;;;;;25.80;13.50;;;;;;;13.36;100.00;99790.66;5160701;27;20448;-62
2023/10/03 05:42:20;;;;;;;39.55;14.60;;;;;;;13.80;100.00;99792.97;5160875;27;20377;-62
2023/10/03 05:44:46;;;;;;;29.00;14.63;;;;;;;13.72;100.00;99791.25;5160984;27;20062;-63
2023/10/03 05:47:12;;;;;;;37.80;15.18;;;;;;;13.54;100.00;99789.00;5160975;27;20241;-62
2023/10/03 05:49:38;;;;;;;30.40;15.75;;;;;;;13.85;100.00;99793.41;5160942;27;20106;-61
2023/10/03 05:52:04;;;;;;;40.65;16.08;;;;;;;13.81;100.00;99791.78;5160704;27;20047;-61
2023/10/03 05:54:30;;;;;;;38.92;16.58;;;;;;;14.02;100.00;99783.81;5160848;27;20047;-63
2023/10/03 05:56:57;;;;;;;34.72;17.25;;;;;;;14.15;100.00;99783.59;5160686;27;20062;-62
2023/10/03 05:59:26;;;;;;;44.15;18.42;;;;;;;14.42;100.00;99774.06;5160846;27;20404;-63
2023/10/03 06:01:52;;;;;;;35.10;16.95;;;;;;;14.07;100.00;99760.66;5160499;27;20054;-59
2023/10/03 06:04:18;;;;;;;33.35;16.83;;;;;;;14.43;100.00;99772.09;5160232;27;20141;-62
2023/10/03 06:06:44;;;;;;;38.03;16.98;;;;;;;14.65;100.00;99757.44;5160209;27;20056;-62
2023/10/03 06:09:10;;;;;;;31.15;14.90;;;;;;;14.54;100.00;99751.00;5160134;27;20050;-62
2023/10/03 06:11:36;;;;;;;29.05;13.48;;;;;;;14.32;100.00;99742.44;5160452;27;20061;-57
2023/10/03 06:14:03;;;;;;;30.13;14.45;;;;;;;14.31;100.00;99751.88;5160224;27;20064;-62
2023/10/03 06:16:29;;;;;;;32.85;14.27;;;;;;;14.51;100.00;99758.06;5160319;27;20051;-61
2023/10/03 06:18:56;;;;;;;37.55;15.57;;;;;;;14.69;100.00;99757.47;5160240;27;20043;-63
2023/10/03 06:21:23;;;;;;;25.23;14.38;;;;;;;14.87;100.00;99750.16;5160424;27;20062;-63
2023/10/03 06:23:49;;;;;;;24.48;14.02;;;;;;;14.50;100.00;99739.13;5160163;27;20043;-61
2023/10/03 06:26:17;;;;;;;32.88;16.00;;;;;;;14.88;100.00;99750.97;5160305;27;20114;-60
2023/10/03 06:28:43;;;;;;;26.60;15.25;;;;;;;14.91;100.00;99741.91;5159867;27;20059;-63
2023/10/03 06:31:10;;;;;;;28.67;14.73;;;;;;;14.78;100.00;99730.34;5160235;27;20042;-59
2023/10/03 06:33:37;;;;;;;35.13;17.42;;;;;;;15.11;100.00;99712.13;5160086;27;20095;-58
2023/10/03 06:36:06;;;;;;;34.08;15.80;;;;;;;14.83;100.00;99743.81;5160018;27;20504;-61
2023/10/03 06:38:32;;;;;;;33.83;16.27;;;;;;;15.02;100.00;99738.06;5160091;27;20050;-62
2023/10/03 06:40:58;;;;;;;35.63;15.88;;;;;;;14.99;100.00;99710.44;5159041;27;20062;-65
2023/10/03 06:43:24;;;;;;;29.17;14.25;;;;;;;15.17;100.00;99714.16;5159991;27;20056;-65
2023/10/03 06:45:50;;;;;;;33.60;14.50;;;;;;;15.21;100.00;99692.06;5159840;27;20084;-64
2023/10/03 06:48:17;;;;;;;37.15;21.77;;;;;;;15.01;100.00;99717.16;5159909;27;20375;-61
2023/10/03 06:50:43;;;;;;;29.63;13.57;;;;;;;15.40;100.00;99702.88;5159454;27;20153;-61
2023/10/03 06:53:09;;;;;;;35.67;21.20;;;;;;;15.61;100.00;99688.41;5159906;27;20047;-60
2023/10/03 06:55:36;;;;;;;37.80;14.20;;;;;;;15.93;100.00;99604.88;5159244;27;20150;-60
2023/10/03 06:58:02;;;;;;;39.00;21.15;;;;;;;16.00;100.00;99458.31;5159812;27;20112;-59
2023/10/03 07:00:32;;;;;;;35.92;20.40;;;;;;;15.52;100.00;99533.19;5159163;27;20047;-62
2023/10/03 07:02:58;;;;;;;23.08;12.30;;;;;;;16.67;100.00;99484.38;5159836;27;20468;-61
2023/10/03 07:05:25;;;;;;;21.70;11.02;;;;;;;17.03;100.00;99125.06;5159230;27;20050;-61
2023/10/03 07:07:51;;;;;;;30.73;12.48;;;;;;;17.30;100.00;98803.03;5159551;27;20061;-64
2023/10/03 07:10:17;;;;;;;30.50;17.30;;;;;;;17.99;100.00;98723.06;5159497;27;20050;-61
2023/10/03 07:12:43;;;;;;;25.17;10.98;;;;;;;18.06;100.00;98481.59;5159229;27;20050;-60
2023/10/03 07:15:11;;;;;;;33.72;18.50;;;;;;;18.91;100.00;98397.41;5159405;27;20114;-59
2023/10/03 07:17:37;;;;;;;22.33;12.65;;;;;;;19.10;100.00;98342.91;5159166;27;20069;-62
2023/10/03 07:20:07;;;;;;;25.00;12.80;;;;;;;19.72;100.00;98352.50;5159452;27;20411;-62
2023/10/03 07:22:34;;;;;;;34.03;12.85;;;;;;;19.72;100.00;98413.66;5159376;27;20386;-60
2023/10/03 07:25:00;;;;;;;33.85;17.30;;;;;;;19.60;100.00;98372.72;5159367;27;20206;-63
2023/10/03 07:27:26;;;;;;;24.00;11.27;;;;;;;19.93;100.00;98373.28;5158981;27;20327;-61
2023/10/03 07:29:52;;;;;;;20.70;8.95;;;;;;;19.43;100.00;98354.59;5159411;27;20147;-62
2023/10/03 07:32:18;;;;;;;19.00;8.65;;;;;;;18.96;100.00;98357.97;5159031;27;20053;-59
2023/10/03 07:34:46;;;;;;;20.60;9.02;;;;;;;20.05;100.00;98365.38;5159010;27;20392;-62
2023/10/03 07:37:14;;;;;;;16.60;8.70;;;;;;;18.87;100.00;98347.53;5158643;27;20122;-62
2023/10/03 07:39:40;;;;;;;27.00;9.18;;;;;;;19.91;100.00;98366.63;5159001;27;20074;-60
2023/10/03 07:42:08;;;;;;;22.42;9.27;;;;;;;19.60;100.00;98371.97;5159026;27;20046;-60
2023/10/03 07:44:35;;;;;;;16.35;8.95;;;;;;;19.90;100.00;98381.75;5158794;27;20054;-59
2023/10/03 07:47:03;;;;;;;16.17;8.70;;;;;;;20.60;100.00;98464.13;5158774;27;20146;-60
2023/10/03 07:49:30;;;;;;;24.15;8.27;;;;;;;20.90;100.00;98560.22;5158680;27;20057;-59
2023/10/03 07:51:59;;;;;;;19.85;7.22;;;;;;;21.10;100.00;98548.78;5157626;27;20046;-59
2023/10/03 07:54:26;;;;;;;23.20;14.10;;;;;;;19.88;100.00;98499.00;5158327;27;20142;-58
2023/10/03 07:56:52;;;;;;;21.02;13.38;;;;;;;19.68;100.00;98399.09;5158745;27;20125;-61
2023/10/03 07:59:18;;;;;;;25.38;11.20;;;;;;;19.79;100.00;98432.13;5158128;27;20343;-62
2023/10/03 08:01:44;;;;;;;23.08;10.40;;;;;;;19.15;100.00;98326.44;5158677;27;20043;-60
2023/10/03 08:04:12;;;;;;;24.13;10.70;;;;;;;18.56;100.00;98331.31;5158243;27;20407;-59
2023/10/03 08:06:39;;;;;;;18.92;9.75;;;;;;;18.68;100.00;98356.75;5158381;27;20047;-60
2023/10/03 08:09:08;;;;;;;13.65;7.53;;;;;;;18.84;100.00;98342.84;5158552;27;20138;-59
2023/10/03 08:11:35;;;;;;;25.42;9.32;;;;;;;18.60;100.00;98355.41;5158193;27;20047;-60
2023/10/03 08:14:11;;;;;;;15.98;8.07;;;;;;;18.26;100.00;98365.81;5158267;27;20050;-61
2023/10/03 08:16:40;;;;;;;20.90;7.38;;;;;;;18.59;100.00;98376.81;5158251;27;20050;-62
2023/10/03 08:19:08;;;;;;;20.30;8.32;;;;;;;17.41;100.00;98565.34;5158589;27;20054;-62
2023/10/03 08:21:34;;;;;;;22.58;8.65;;;;;;;18.17;100.00;98604.22;5158116;27;20420;-59
2023/10/03 08:24:09;;;;;;;18.15;9.05;;;;;;;17.88;100.00;98529.16;5158645;27;20207;-61
2023/10/03 08:26:36;;;;;;;20.08;9.18;;;;;;;17.81;100.00;98565.38;5158241;27;20046;-60
2023/10/03 08:29:04;;;;;;;27.75;9.05;;;;;;;18.53;100.00;98534.81;5158008;27;20141;-60
2023/10/03 08:31:30;;;;;;;18.45;8.77;;;;;;;18.60;100.00;98478.31;5158135;27;20153;-61
2023/10/03 08:33:56;;;;;;;20.17;9.45;;;;;;;18.32;100.00;98524.19;5158048;27;20114;-59
2023/10/03 08:36:23;;;;;;;22.13;10.35;;;;;;;18.11;100.00;98567.09;5158223;27;20054;-59
2023/10/03 08:38:49;;;;;;;21.73;11.30;;;;;;;17.68;100.00;98723.19;5157687;27;20057;-60
2023/10/03 08:41:22;;;;;;;20.13;10.27;;;;;;;18.46;100.00;98648.78;5158077;27;20191;-59
2023/10/03 08:43:54;;;;;;;26.70;11.15;;;;;;;18.50;100.00;98580.06;5157911;27;20050;-61
2023/10/03 08:46:24;;;;;;;19.95;11.00;;;;;;;18.34;100.00;98633.56;5158109;27;20145;-58
2023/10/03 08:48:51;;;;;;;33.15;12.43;;;;;;;17.69;100.00;98807.91;5157755;27;20051;-61
2023/10/03 08:51:17;;;;;;;23.23;9.98;;;;;;;17.84;100.00;98873.06;5157947;27;20058;-62
2023/10/03 08:53:47;;;;;;;20.58;9.65;;;;;;;17.68;100.00;98836.06;5157912;27;20107;-60
2023/10/03 08:56:18;;;;;;;18.85;9.65;;;;;;;17.88;100.00;98873.78;5157764;27;20372;-61
2023/10/03 08:58:48;;;;;;;16.67;9.10;;;;;;;17.99;100.00;98845.88;5157684;27;20107;-62
2023/10/03 09:01:17;;;;;;;22.48;8.95;;;;;;;18.18;100.00;98782.53;5157570;27;20042;-60
2023/10/03 09:03:47;;;;;;;21.88;8.95;;;;;;;17.73;100.00;98792.03;5159239;27;20133;-62
2023/10/03 09:06:19;;;;;;;15.13;8.50;;;;;;;17.87;100.00;98922.13;5161314;27;20384;-60
2023/10/03 09:08:46;;;;;;;23.83;13.13;;;;;;;17.78;100.00;98960.69;5161464;27;20488;-60
2023/10/03 09:11:13;;;;;;;17.00;8.07;;;;;;;17.78;100.00;98965.47;5161189;27;20417;-62
2023/10/03 09:13:40;;;;;;;20.75;9.02;;;;;;;17.62;100.00;98913.38;5161636;27;20092;-60
2023/10/03 09:16:08;;;;;;;19.77;8.30;;;;;;;17.82;100.00;98919.81;5161312;27;20061;-59
2023/10/03 09:18:40;;;;;;;19.55;9.70;;;;;;;17.58;100.00;99079.75;5161391;27;20046;-61
2023/10/03 09:21:07;;;;;;;19.75;9.07;;;;;;;17.73;100.00;99032.47;5161185;27;20050;-61
2023/10/03 09:23:39;;;;;;;19.58;8.57;;;;;;;17.77;100.00;99127.50;5161136;27;20051;-61
2023/10/03 09:26:06;;;;;;;18.70;8.80;;;;;;;18.15;100.00;98994.22;5161150;27;20051;-59
2023/10/03 09:28:35;;;;;;;21.42;8.93;;;;;;;18.46;100.00;98922.75;5160896;27;20050;-61
2023/10/03 09:31:02;;;;;;;19.85;9.07;;;;;;;18.68;100.00;98749.00;5160928;27;20362;-59
2023/10/03 09:33:28;;;;;;;25.08;10.23;;;;;;;18.62;100.00;98681.31;5161150;27;20133;-62
2023/10/03 09:35:58;;;;;;;15.88;9.30;;;;;;;18.59;100.00;98676.63;5161162;27;20312;-61
2023/10/03 09:38:42;;;;;;;15.90;9.55;;;;;;;18.71;100.00;98647.41;5160540;27;20042;-60
2023/10/03 09:41:09;;;;;;;20.67;9.75;;;;;;;18.46;100.00;98667.38;5160515;27;20082;-61
2023/10/03 09:43:35;;;;;;;25.70;11.75;;;;;;;18.79;100.00;98735.72;5160904;27;20061;-62
2023/10/03 09:46:01;;;;;;;21.92;10.80;;;;;;;18.83;100.00;98707.84;5160831;27;20061;-63
2023/10/03 09:48:27;;;;;;;30.17;10.73;;;;;;;18.64;100.00;98739.97;5160668;27;20046;-62
2023/10/03 09:50:55;;;;;;;19.50;9.07;;;;;;;18.69;100.00;98625.63;5160643;27;20137;-61
2023/10/03 09:53:27;;;;;;;20.60;8.82;;;;;;;18.56;100.00;98699.72;5160950;27;20153;-62
2023/10/03 09:55:54;;;;;;;20.23;8.20;;;;;;;18.34;100.00;98811.16;5160399;27;20063;-59
2023/10/03 09:58:24;;;;;;;14.52;8.40;;;;;;;18.53;100.00;98693.03;5160732;27;20089;-60
2023/10/03 10:00:52;;;;;;;20.45;8.88;;;;;;;18.86;100.00;98606.22;5160286;27;20051;-62
2023/10/03 10:03:26;;;;;;;19.15;8.80;;;;;;;19.18;100.00;98525.63;5160525;27;20099;-62
2023/10/03 10:06:01;;;;;;;17.38;12.85;;;;;;;19.43;100.00;98460.22;5160526;27;20065;-61
2023/10/03 10:08:34;;;;;;;20.33;8.48;;;;;;;19.74;100.00;98399.34;5160579;27;20137;-60
2023/10/03 10:11:07;;;;;;;17.23;9.23;;;;;;;19.67;100.00;98352.28;5160940;27;20130;-61
2023/10/03 10:13:36;;;;;;;20.30;7.97;;;;;;;19.83;100.00;98354.94;5160130;27;20397;-60
2023/10/03 10:16:13;;;;;;;18.00;8.63;;;;;;;20.02;100.00;98272.44;5159449;27;20061;-58
2023/10/03 10:18:59;;;;;;;21.50;8.38;;;;;;;19.99;100.00;98270.56;5159998;27;20069;-63
2023/10/03 10:21:30;;;;;;;17.20;8.10;;;;;;;20.12;100.00;98257.38;5160127;27;20316;-57
2023/10/03 10:24:25;;;;;;;14.07;7.40;;;;;;;20.25;100.00;98259.34;5159976;27;20411;-63
2023/10/03 10:26:52;;;;;;;;;;;;;;;20.56;100.00;98265.00;5160616;27;20361;-59
2023/10/03 10:29:19;;;;;;;22.02;8.95;;;;;;;20.49;100.00;98260.44;5160377;27;20211;-60
2023/10/03 10:31:49;;;;;;;12.88;6.82;;;;;;;20.32;100.00;98245.16;5160009;27;20078;-60
2023/10/03 10:34:36;;;;;;;19.38;9.02;;;;;;;20.22;100.00;98239.53;5160081;27;20459;-61
2023/10/03 10:37:04;;;;;;;19.25;7.88;;;;;;;20.19;100.00;98231.31;5159630;27;20089;-58
2023/10/03 10:40:21;;;;;;;18.55;8.05;;;;;;;20.05;100.00;98240.16;5159781;27;20439;-59
2023/10/03 10:43:04;;;;;;;17.17;7.10;;;;;;;19.95;100.00;98239.31;5160029;27;20053;-62
2023/10/03 10:45:37;;;;;;;19.40;8.37;;;;;;;19.84;100.00;98233.34;5159774;27;20058;-59
2023/10/03 10:48:04;;;;;;;19.88;8.60;;;;;;;20.44;100.00;98222.06;5160087;27;20051;-59
2023/10/03 10:51:07;;;;;;;18.80;9.27;;;;;;;20.56;100.00;98226.00;5159455;27;20050;-60
2023/10/03 10:53:38;;;;;;;25.27;10.10;;;;;;;20.49;100.00;98218.66;5159514;27;20442;-56
2023/10/03 10:56:08;;;;;;;25.10;14.57;;;;;;;21.05;100.00;98248.38;5159895;27;20202;-66
2023/10/03 10:58:45;;;;;;;28.13;8.98;;;;;;;20.89;100.00;98254.19;5159444;27;20055;-60
2023/10/03 11:01:13;;;;;;;12.52;7.28;;;;;;;21.41;100.00;98252.59;5159690;27;20054;-61
2023/10/03 11:03:39;;;;;;;12.57;6.38;;;;;;;20.99;100.00;98250.22;5159153;27;20332;-62
2023/10/03 11:06:14;;;;;;;9.85;5.07;;;;;;;21.32;100.00;98274.81;5159594;27;20145;-62
2023/10/03 11:08:44;;;;;;;15.32;6.13;;;;;;;21.37;100.00;98314.06;5159291;27;20047;-61
2023/10/03 11:11:10;;;;;;;16.17;6.50;;;;;;;21.18;100.00;98300.47;5159250;27;20050;-60
2023/10/03 11:13:45;;;;;;;15.77;9.73;;;;;;;21.08;100.00;98275.34;5159205;27;20057;-58
2023/10/03 11:16:11;;;;;;;15.57;6.25;;;;;;;21.04;100.00;98346.38;5158655;27;20080;-62
2023/10/03 11:18:38;;;;;;;15.43;5.97;;;;;;;21.18;100.00;98303.25;5159265;27;20051;-63
2023/10/03 11:21:04;;;;;;;14.20;6.05;;;;;;;20.88;100.00;98252.66;5158861;27;20058;-62